Time;durP1;ratioP1;P1;durP2;ratioP2;P2;SDS_P1;SDS_P2;PMS_P1;PMS_P2;Temp;Humidity;BMP_temperature;BMP_pressure;BME280_temperature;BME280_humidity;BME280_pressure;Samples;Min_cycle;Max_cycle;Signal;HPM_P1;HPM_P2
2022/05/20 00:00:04;;;;;;;;;;;;;;;17.68;100.00;96460.75;1030551;28;19914;-70
2022/05/20 00:00:34;;;;;;;;;;;;;;;17.66;100.00;96455.72;1031455;28;19913;-68
2022/05/20 00:01:05;;;;;;;;;;;;;;;17.65;100.00;96456.78;1035308;28;20659;-70
2022/05/20 00:01:35;;;;;;;;;;;;;;;17.64;100.00;96460.53;1031829;28;20265;-69
2022/05/20 00:02:06;;;;;;;;;;;;;;;17.68;100.00;96461.53;1027467;28;19914;-70
2022/05/20 00:02:36;;;;;;;;;;;;;;;17.67;100.00;96454.66;1031251;28;20492;-69
2022/05/20 00:03:06;;;;;;;;;;;;;;;17.69;100.00;96457.00;1026466;28;19918;-69
2022/05/20 00:03:37;;;;;;;;;;;;;;;17.72;100.00;96460.94;1023260;28;19915;-69
2022/05/20 00:04:07;;;;;;;;;;;;;;;17.71;100.00;96460.16;1031436;28;20360;-68
2022/05/20 00:04:39;;;;;;;;;;;;;;;17.71;100.00;96457.50;1031535;28;20009;-69
2022/05/20 00:05:09;;;;;;;;;;;;;;;17.71;100.00;96454.06;1039515;28;19960;-70
2022/05/20 00:05:39;;;;;;;;;;;;;;;17.70;100.00;96461.22;1039219;28;19917;-70
2022/05/20 00:06:12;;;;;;;;;;;;;;;17.74;100.00;96458.78;1039336;28;19920;-69
2022/05/20 00:06:43;;;;;;;;;;;;;;;17.74;100.00;96454.28;1035100;28;19979;-68
2022/05/20 00:07:13;;;;;;;;;;;;;;;17.72;100.00;96466.25;1030952;28;19914;-69
2022/05/20 00:07:43;;;;;;;;;;;;;;;17.67;100.00;96457.31;1027094;28;19925;-70
2022/05/20 00:08:14;;;;;;;;;;;;;;;17.67;100.00;96459.97;1025108;28;20009;-70
2022/05/20 00:08:44;;;;;;;;;;;;;;;17.68;100.00;96466.06;1025707;28;19918;-69
2022/05/20 00:09:14;;;;;;;;;;;;;;;17.68;100.00;96466.06;1030982;28;19922;-69
2022/05/20 00:09:46;;;;;;;;;;;;;;;17.68;100.00;96461.53;1030420;28;20633;-69
2022/05/20 00:10:17;;;;;;;;;;;;;;;17.69;100.00;96470.28;1035350;28;20336;-69
2022/05/20 00:10:47;;;;;;;;;;;;;;;17.67;100.00;96465.28;1035420;28;19941;-69
2022/05/20 00:11:17;;;;;;;;;;;;;;;17.64;100.00;96475.69;1031011;28;19922;-69
2022/05/20 00:11:48;;;;;;;;;;;;;;;17.64;100.00;96475.69;1026873;28;20535;-69
2022/05/20 00:12:24;;;;;;;;;;;;;;;17.53;100.00;96460.97;1028045;28;19918;-69
2022/05/20 00:12:54;;;;;;;;;;;;;;;17.58;100.00;96477.63;1031983;28;19918;-70
2022/05/20 00:13:25;;;;;;;;;;;;;;;17.57;100.00;96473.41;1034666;28;20011;-68
2022/05/20 00:13:58;;;;;;;;;;;;;;;17.57;100.00;96477.88;1035357;28;19909;-69
2022/05/20 00:14:29;;;;;;;;;;;;;;;17.54;100.00;96473.97;1039291;28;19917;-72
2022/05/20 00:14:59;;;;;;;;;;;;;;;17.51;100.00;96471.88;1035562;28;19917;-70
2022/05/20 00:15:29;;;;;;;;;;;;;;;17.49;100.00;96474.03;1038757;28;19928;-70
2022/05/20 00:16:00;;;;;;;;;;;;;;;17.49;100.00;96468.72;1039195;28;20425;-70
2022/05/20 00:16:34;;;;;;;;;;;;;;;17.48;100.00;96472.47;1035228;28;19921;-69
2022/05/20 00:17:05;;;;;;;;;;;;;;;17.46;100.00;96469.28;1039450;28;19917;-69
2022/05/20 00:17:35;;;;;;;;;;;;;;;17.44;100.00;96460.84;1034327;28;20395;-69
2022/05/20 00:18:06;;;;;;;;;;;;;;;17.43;100.00;96464.56;1027729;28;19922;-70
2022/05/20 00:18:36;;;;;;;;;;;;;;;17.42;100.00;96463.00;1034440;28;19964;-70
2022/05/20 00:19:06;;;;;;;;;;;;;;;17.41;100.00;96464.09;1031259;28;20343;-69
2022/05/20 00:19:37;;;;;;;;;;;;;;;17.39;100.00;96466.22;1034757;28;20004;-69
2022/05/20 00:20:07;;;;;;;;;;;;;;;17.41;100.00;96464.09;1034945;28;20280;-69
2022/05/20 00:20:38;;;;;;;;;;;;;;;17.39;100.00;96463.56;1027059;28;20255;-70
2022/05/20 00:21:08;;;;;;;;;;;;;;;17.38;100.00;96465.44;1031232;28;20587;-68
2022/05/20 00:21:39;;;;;;;;;;;;;;;17.36;100.00;96458.84;1030697;28;19929;-70
2022/05/20 00:22:11;;;;;;;;;;;;;;;17.38;100.00;96464.66;1031030;28;20016;-69
2022/05/20 00:22:41;;;;;;;;;;;;;;;17.36;100.00;96464.13;1031412;28;19922;-69
2022/05/20 00:23:12;;;;;;;;;;;;;;;17.35;100.00;96457.25;1035186;28;19922;-69
2022/05/20 00:23:42;;;;;;;;;;;;;;;17.36;100.00;96458.84;1030303;28;19926;-71
2022/05/20 00:24:12;;;;;;;;;;;;;;;17.36;100.00;96456.97;1038535;28;20279;-71
2022/05/20 00:25:46;;;;;;;;;;;;;;;17.32;100.00;96455.19;1039185;28;20009;-69
2022/05/20 00:26:16;;;;;;;;;;;;;;;17.33;100.00;96459.41;1039331;28;19909;-69
2022/05/20 00:26:47;;;;;;;;;;;;;;;17.34;100.00;96461.78;1043769;28;20402;-69
2022/05/20 00:27:17;;;;;;;;;;;;;;;17.34;100.00;96453.03;1039050;28;19921;-69
2022/05/20 00:27:47;;;;;;;;;;;;;;;17.34;100.00;96461.00;1035274;28;19954;-71
2022/05/20 00:28:20;;;;;;;;;;;;;;;17.33;100.00;96456.75;1035126;28;19918;-68
2022/05/20 00:28:50;;;;;;;;;;;;;;;17.36;100.00;96453.53;1031308;28;20494;-69
2022/05/20 00:29:20;;;;;;;;;;;;;;;17.33;100.00;96454.09;1027343;28;19914;-68
2022/05/20 00:29:51;;;;;;;;;;;;;;;17.32;100.00;96460.50;1026698;28;19914;-69
2022/05/20 00:30:21;;;;;;;;;;;;;;;17.31;100.00;96461.56;1031048;28;19933;-68
2022/05/20 00:30:58;;;;;;;;;;;;;;;17.29;100.00;96455.75;1031007;28;20190;-70
2022/05/20 00:31:29;;;;;;;;;;;;;;;17.30;100.00;96459.97;1036709;28;19921;-68
2022/05/20 00:31:59;;;;;;;;;;;;;;;17.29;100.00;96464.50;1043432;28;19917;-70
2022/05/20 00:32:29;;;;;;;;;;;;;;;17.27;100.00;96460.56;1045138;28;20400;-69
2022/05/20 00:33:00;;;;;;;;;;;;;;;17.27;100.00;96455.25;1039212;28;19913;-69
2022/05/20 00:33:32;;;;;;;;;;;;;;;17.25;100.00;96462.72;1031080;28;19980;-68
2022/05/20 00:34:05;;;;;;;;;;;;;;;17.22;100.00;96457.97;1026334;28;20510;-69
2022/05/20 00:34:36;;;;;;;;;;;;;;;17.20;100.00;96461.72;1023452;28;19972;-68
2022/05/20 00:35:06;;;;;;;;;;;;;;;17.19;100.00;96449.50;1023826;28;19985;-70
2022/05/20 00:35:37;;;;;;;;;;;;;;;17.18;100.00;96453.25;1027026;28;20048;-70
2022/05/20 00:36:07;;;;;;;;;;;;;;;17.20;100.00;96451.13;1023029;28;19919;-68
2022/05/20 00:36:37;;;;;;;;;;;;;;;17.22;100.00;96453.47;1022797;29;20462;-71
2022/05/20 00:37:07;;;;;;;;;;;;;;;17.20;100.00;96447.66;1023239;28;19919;-70
2022/05/20 00:37:38;;;;;;;;;;;;;;;17.19;100.00;96452.16;1024966;28;19946;-72
2022/05/20 00:38:08;;;;;;;;;;;;;;;17.19;100.00;96454.03;1031209;28;19961;-71
2022/05/20 00:38:39;;;;;;;;;;;;;;;17.18;100.00;96450.59;1026861;28;19945;-71
2022/05/20 00:39:09;;;;;;;;;;;;;;;17.17;100.00;96450.91;1027012;28;19934;-71
2022/05/20 00:39:39;;;;;;;;;;;;;;;17.20;100.00;96447.66;1030559;28;20402;-69
2022/05/20 00:40:10;;;;;;;;;;;;;;;17.18;100.00;96447.94;1035228;28;19917;-70
2022/05/20 00:40:40;;;;;;;;;;;;;;;17.18;100.00;96455.91;1034997;28;19917;-70
2022/05/20 00:41:11;;;;;;;;;;;;;;;17.18;100.00;96445.28;1039161;28;20404;-70
2022/05/20 00:41:41;;;;;;;;;;;;;;;17.17;100.00;96442.94;1033109;28;20625;-70
2022/05/20 00:42:15;;;;;;;;;;;;;;;17.17;100.00;96445.59;1031089;28;20320;-69
2022/05/20 00:42:45;;;;;;;;;;;;;;;17.18;100.00;96449.81;1025123;28;19915;-70
2022/05/20 00:43:24;;;;;;;;;;;;;;;17.18;100.00;96452.47;1027576;28;19914;-70
2022/05/20 00:43:55;;;;;;;;;;;;;;;17.17;100.00;96450.91;1024599;28;19919;-69
2022/05/20 00:44:26;;;;;;;;;;;;;;;17.15;100.00;96453.03;1031417;28;19918;-71
2022/05/20 00:44:56;;;;;;;;;;;;;;;17.15;100.00;96453.81;1034823;28;20429;-70
2022/05/20 00:45:27;;;;;;;;;;;;;;;17.15;100.00;96443.22;1031303;28;19918;-70
2022/05/20 00:45:58;;;;;;;;;;;;;;;17.15;100.00;96453.81;1034951;28;19925;-70
2022/05/20 00:46:28;;;;;;;;;;;;;;;17.14;100.00;96454.91;1031210;28;19918;-70
2022/05/20 00:46:58;;;;;;;;;;;;;;;17.13;100.00;96453.31;1030924;28;20425;-70
2022/05/20 00:47:29;;;;;;;;;;;;;;;17.11;100.00;96452.81;1035092;28;19929;-70
2022/05/20 00:47:59;;;;;;;;;;;;;;;17.14;100.00;96451.47;1038283;28;19924;-71
2022/05/20 00:48:29;;;;;;;;;;;;;;;17.14;100.00;96441.66;1039214;28;19925;-70
2022/05/20 00:49:07;;;;;;;;;;;;;;;17.14;100.00;96451.47;1034861;28;19917;-70
2022/05/20 00:49:37;;;;;;;;;;;;;;;17.15;100.00;96451.16;1027352;28;19917;-70
2022/05/20 00:50:09;;;;;;;;;;;;;;;17.16;100.00;96452.75;1024046;28;19925;-69
2022/05/20 00:50:41;;;;;;;;;;;;;;;17.16;100.00;96452.75;1028195;28;20018;-70
2022/05/20 00:51:12;;;;;;;;;;;;;;;17.16;100.00;96449.31;1031261;28;19918;-70
2022/05/20 00:51:46;;;;;;;;;;;;;;;17.14;100.00;96451.47;1027263;28;20029;-71
2022/05/20 00:52:17;;;;;;;;;;;;;;;17.12;100.00;96446.44;1030803;28;19961;-70
2022/05/20 00:52:48;;;;;;;;;;;;;;;17.11;100.00;96446.72;1027624;28;19914;-71
2022/05/20 00:53:19;;;;;;;;;;;;;;;17.08;100.00;96453.41;1031539;28;20630;-70
2022/05/20 00:53:53;;;;;;;;;;;;;;;17.07;100.00;96451.00;1035077;28;20037;-69
2022/05/20 00:54:27;;;;;;;;;;;;;;;17.05;100.00;96453.97;1035547;28;19919;-70
2022/05/20 00:54:59;;;;;;;;;;;;;;;17.03;100.00;96450.78;1035042;28;19921;-70
2022/05/20 00:55:29;;;;;;;;;;;;;;;17.03;100.00;96456.09;1032252;28;19949;-71
2022/05/20 00:56:00;;;;;;;;;;;;;;;17.03;100.00;96450.78;1035022;28;19918;-69
2022/05/20 00:56:51;;;;;;;;;;;;;;;17.03;100.00;96456.09;1026778;28;19972;-69
2022/05/20 00:57:21;;;;;;;;;;;;;;;17.03;100.00;96456.09;1032332;28;20016;-70
2022/05/20 00:57:55;;;;;;;;;;;;;;;17.04;100.00;96448.97;1030977;28;20701;-72
2022/05/20 00:58:25;;;;;;;;;;;;;;;17.06;100.00;96450.22;1033467;28;19923;-71
2022/05/20 00:58:58;;;;;;;;;;;;;;;17.08;100.00;96445.44;1034942;28;19971;-71
2022/05/20 00:59:29;;;;;;;;;;;;;;;17.07;100.00;96451.81;1035739;28;20008;-71
2022/05/20 01:00:01;;;;;;;;;;;;;;;17.09;100.00;96454.97;1038908;28;20420;-70
2022/05/20 01:00:31;;;;;;;;;;;;;;;17.08;100.00;96457.91;1039226;28;19921;-70
2022/05/20 01:01:04;;;;;;;;;;;;;;;17.08;100.00;96453.41;1030741;28;19917;-69
2022/05/20 01:01:34;;;;;;;;;;;;;;;17.09;100.00;96457.63;1029314;28;19917;-70
2022/05/20 01:02:08;;;;;;;;;;;;;;;17.12;100.00;96453.59;1027180;28;19918;-70
2022/05/20 01:02:38;;;;;;;;;;;;;;;17.11;100.00;96452.81;1031753;28;20492;-70
2022/05/20 01:03:09;;;;;;;;;;;;;;;17.09;100.00;96454.97;1034222;28;19921;-71
2022/05/20 01:03:39;;;;;;;;;;;;;;;17.07;100.00;96457.13;1034846;28;19985;-71
2022/05/20 01:04:10;;;;;;;;;;;;;;;17.05;100.00;96451.31;1031179;28;19909;-70
2022/05/20 01:04:40;;;;;;;;;;;;;;;17.04;100.00;96457.69;1030778;28;19940;-70
2022/05/20 01:05:33;;;;;;;;;;;;;;;17.03;100.00;96460.63;1031072;28;20034;-70
2022/05/20 01:06:04;;;;;;;;;;;;;;;16.99;100.00;96457.75;1022059;28;19918;-70
2022/05/20 01:06:34;;;;;;;;;;;;;;;16.96;100.00;96460.97;1029908;28;19953;-70
2022/05/20 01:07:05;;;;;;;;;;;;;;;16.94;100.00;96453.31;1026825;28;20437;-70
2022/05/20 01:07:36;;;;;;;;;;;;;;;16.93;100.00;96456.22;1022950;28;19997;-70
2022/05/20 01:08:08;;;;;;;;;;;;;;;16.94;100.00;96455.19;1027106;28;20582;-70
2022/05/20 01:08:39;;;;;;;;;;;;;;;16.90;100.00;96468.22;1026851;28;20764;-70
2022/05/20 01:09:09;;;;;;;;;;;;;;;16.89;100.00;96460.53;1023459;28;19914;-70
2022/05/20 01:09:39;;;;;;;;;;;;;;;16.88;100.00;96461.63;1026581;28;19910;-71
2022/05/20 01:10:10;;;;;;;;;;;;;;;16.86;100.00;96466.41;1034893;28;19905;-70
2022/05/20 01:10:40;;;;;;;;;;;;;;;16.84;100.00;96457.97;1031726;28;20358;-70
2022/05/20 01:11:10;;;;;;;;;;;;;;;16.84;100.00;96455.31;1029826;28;20016;-70
2022/05/20 01:11:41;;;;;;;;;;;;;;;16.84;100.00;96457.97;1027590;28;19910;-70
2022/05/20 01:12:11;;;;;;;;;;;;;;;16.83;100.00;96456.38;1026628;28;19921;-69
2022/05/20 01:12:41;;;;;;;;;;;;;;;16.80;100.00;96455.09;1026113;28;20347;-71
2022/05/20 01:13:12;;;;;;;;;;;;;;;16.80;100.00;96460.41;1025506;28;20043;-71
2022/05/20 01:13:44;;;;;;;;;;;;;;;16.83;100.00;96459.00;1034790;28;20089;-70
2022/05/20 01:14:18;;;;;;;;;;;;;;;16.80;100.00;96451.63;1035130;28;19910;-70
2022/05/20 01:14:49;;;;;;;;;;;;;;;16.81;100.00;96458.53;1038681;28;19905;-70
2022/05/20 01:15:19;;;;;;;;;;;;;;;16.80;100.00;96451.63;1029898;28;19914;-70
2022/05/20 01:15:49;;;;;;;;;;;;;;;16.79;100.00;96450.06;1023437;28;19915;-70
2022/05/20 01:16:20;;;;;;;;;;;;;;;16.78;100.00;96448.50;1030466;28;19913;-70
2022/05/20 01:16:53;;;;;;;;;;;;;;;16.76;100.00;96451.41;1026651;28;19918;-71
2022/05/20 01:17:23;;;;;;;;;;;;;;;16.76;100.00;96451.41;1030967;28;19952;-70
2022/05/20 01:17:53;;;;;;;;;;;;;;;16.75;100.00;96455.16;1018863;29;20412;-70
2022/05/20 01:18:24;;;;;;;;;;;;;;;16.76;100.00;96450.63;1030696;28;19946;-71
2022/05/20 01:18:56;;;;;;;;;;;;;;;16.76;100.00;96451.41;1026944;28;19917;-69
2022/05/20 01:19:39;;;;;;;;;;;;;;;16.72;100.00;96445.88;1031323;28;19923;-70
2022/05/20 01:20:11;;;;;;;;;;;;;;;16.72;100.00;96445.06;1030786;28;19910;-70
2022/05/20 01:20:45;;;;;;;;;;;;;;;16.70;100.00;96448.03;1034277;28;19911;-69
2022/05/20 01:21:16;;;;;;;;;;;;;;;16.70;100.00;96447.25;1030982;28;19910;-69
2022/05/20 01:21:46;;;;;;;;;;;;;;;16.71;100.00;96449.59;1031648;28;19914;-70
2022/05/20 01:22:35;;;;;;;;;;;;;;;16.70;100.00;96442.72;1034598;28;19913;-71
2022/05/20 01:23:07;;;;;;;;;;;;;;;16.67;100.00;96448.59;1037261;28;20676;-71
2022/05/20 01:23:37;;;;;;;;;;;;;;;16.66;100.00;96447.00;1038688;28;19917;-70
2022/05/20 01:24:07;;;;;;;;;;;;;;;16.64;100.00;96443.84;1038778;28;19916;-70
2022/05/20 01:24:38;;;;;;;;;;;;;;;16.70;100.00;96447.25;1038691;28;19924;-70
2022/05/20 01:25:08;;;;;;;;;;;;;;;16.69;100.00;96443.78;1047472;28;19943;-70
2022/05/20 01:25:40;;;;;;;;;;;;;;;16.71;100.00;96444.28;1043191;28;20011;-70
2022/05/20 01:26:11;;;;;;;;;;;;;;;16.72;100.00;96445.06;1039271;28;19913;-70
2022/05/20 01:26:41;;;;;;;;;;;;;;;16.72;100.00;96437.91;1034690;28;19910;-69
2022/05/20 01:27:11;;;;;;;;;;;;;;;16.74;100.00;96435.00;1030784;28;20754;-70
2022/05/20 01:27:46;;;;;;;;;;;;;;;16.75;100.00;96438.47;1031558;28;19914;-70
2022/05/20 01:28:16;;;;;;;;;;;;;;;16.76;100.00;96432.06;1028275;28;20049;-70
2022/05/20 01:28:47;;;;;;;;;;;;;;;16.79;100.00;96434.16;1029845;28;20021;-70
2022/05/20 01:29:17;;;;;;;;;;;;;;;16.77;100.00;96441.59;1031081;28;19920;-71
2022/05/20 01:29:47;;;;;;;;;;;;;;;16.79;100.00;96436.81;1033562;28;19933;-70
2022/05/20 01:30:18;;;;;;;;;;;;;;;16.81;100.00;96437.31;1027171;28;20031;-70
2022/05/20 01:30:54;;;;;;;;;;;;;;;16.81;100.00;96432.03;1028657;28;20499;-70
2022/05/20 01:31:24;;;;;;;;;;;;;;;16.81;100.00;96432.03;1029090;28;20265;-71
2022/05/20 01:31:54;;;;;;;;;;;;;;;16.81;100.00;96429.38;1038916;28;19913;-70
2022/05/20 01:32:25;;;;;;;;;;;;;;;16.80;100.00;96431.25;1038334;28;19913;-70
2022/05/20 01:32:55;;;;;;;;;;;;;;;16.79;100.00;96429.63;1030776;28;20008;-70
2022/05/20 01:33:26;;;;;;;;;;;;;;;16.79;100.00;96423.56;1023109;28;19918;-71
2022/05/20 01:33:58;;;;;;;;;;;;;;;16.77;100.00;96423.84;1026775;28;20008;-70
2022/05/20 01:34:28;;;;;;;;;;;;;;;16.77;100.00;96431.00;1027464;28;19936;-70
2022/05/20 01:34:58;;;;;;;;;;;;;;;16.80;100.00;96425.13;1022890;28;20522;-70
2022/05/20 01:35:29;;;;;;;;;;;;;;;16.80;100.00;96430.44;1019192;28;19911;-70
2022/05/20 01:36:02;;;;;;;;;;;;;;;16.81;100.00;96429.38;1026840;28;20107;-70
2022/05/20 01:36:34;;;;;;;;;;;;;;;16.80;100.00;96430.44;1024088;28;19914;-69
2022/05/20 01:37:04;;;;;;;;;;;;;;;16.78;100.00;96436.03;1030703;28;19914;-69
2022/05/20 01:37:34;;;;;;;;;;;;;;;16.76;100.00;96432.84;1026163;28;19957;-71
2022/05/20 01:38:05;;;;;;;;;;;;;;;16.75;100.00;96427.84;1026790;28;20716;-70
2022/05/20 01:38:35;;;;;;;;;;;;;;;16.73;100.00;96434.22;1030807;28;19953;-70
2022/05/20 01:39:06;;;;;;;;;;;;;;;16.72;100.00;96427.31;1034842;28;20099;-71
2022/05/20 01:39:37;;;;;;;;;;;;;;;16.72;100.00;96434.47;1031368;28;19968;-69
2022/05/20 01:40:08;;;;;;;;;;;;;;;16.72;100.00;96427.31;1026979;28;19925;-69
2022/05/20 01:40:40;;;;;;;;;;;;;;;16.72;100.00;96431.81;1035351;28;19917;-71
2022/05/20 01:41:34;;;;;;;;;;;;;;;16.72;100.00;96429.97;1038780;28;19924;-70
2022/05/20 01:42:05;;;;;;;;;;;;;;;16.77;100.00;96423.03;1029923;28;19910;-70
2022/05/20 01:42:37;;;;;;;;;;;;;;;16.80;100.00;96425.94;1034691;28;19914;-71
2022/05/20 01:43:10;;;;;;;;;;;;;;;16.79;100.00;96423.56;1040170;28;19953;-70
2022/05/20 01:43:59;;;;;;;;;;;;;;;16.78;100.00;96422.78;1035883;28;19916;-70
2022/05/20 01:44:56;;;;;;;;;;;;;;;16.82;100.00;96428.28;1038702;28;19944;-72
2022/05/20 01:45:28;;;;;;;;;;;;;;;16.82;100.00;96423.78;1034805;28;19964;-70
2022/05/20 01:46:21;;;;;;;;;;;;;;;16.84;100.00;96420.84;1038916;28;19947;-70
2022/05/20 01:46:58;;;;;;;;;;;;;;;16.83;100.00;96428.00;1034650;28;20000;-71
2022/05/20 01:47:38;;;;;;;;;;;;;;;16.85;100.00;96428.50;1038369;28;20348;-71
2022/05/20 01:48:10;;;;;;;;;;;;;;;16.86;100.00;96426.63;1034853;28;19914;-70
2022/05/20 01:48:44;;;;;;;;;;;;;;;16.83;100.00;96425.34;1034935;28;19924;-70
2022/05/20 01:49:14;;;;;;;;;;;;;;;16.84;100.00;96426.16;1034856;28;19952;-70
2022/05/20 01:49:50;;;;;;;;;;;;;;;16.81;100.00;96421.41;1027280;28;19918;-70
2022/05/20 01:50:22;;;;;;;;;;;;;;;16.82;100.00;96420.34;1030836;28;19918;-69
2022/05/20 01:50:53;;;;;;;;;;;;;;;16.83;100.00;96414.75;1026650;28;19918;-71
2022/05/20 01:51:23;;;;;;;;;;;;;;;16.83;100.00;96419.25;1030998;28;20347;-70
2022/05/20 01:52:02;;;;;;;;;;;;;;;16.83;100.00;96421.91;1030542;28;19918;-70
2022/05/20 01:52:51;;;;;;;;;;;;;;;16.83;100.00;96420.03;1029278;28;19924;-71
2022/05/20 01:53:37;;;;;;;;;;;;;;;16.83;100.00;96414.75;1035068;28;19917;-70
2022/05/20 01:54:10;;;;;;;;;;;;;;;16.81;100.00;96413.47;1039181;28;20016;-71
2022/05/20 01:54:51;;;;;;;;;;;;;;;16.82;100.00;96421.13;1038422;28;19969;-70
2022/05/20 01:55:33;;;;;;;;;;;;;;;16.82;100.00;96418.47;1031556;28;19918;-71
2022/05/20 01:56:06;;;;;;;;;;;;;;;16.85;100.00;96419.78;1031670;28;20299;-70
2022/05/20 01:56:39;;;;;;;;;;;;;;;16.83;100.00;96419.25;1030644;28;19964;-71
2022/05/20 01:57:15;;;;;;;;;;;;;;;16.82;100.00;96418.47;1027306;28;20108;-70
2022/05/20 01:57:51;;;;;;;;;;;;;;;16.82;100.00;96417.69;1028651;28;19917;-70
2022/05/20 01:58:22;;;;;;;;;;;;;;;16.80;100.00;96419.81;1033362;28;19972;-70
2022/05/20 01:59:02;;;;;;;;;;;;;;;16.80;100.00;96419.81;1031461;28;19925;-69
2022/05/20 01:59:40;;;;;;;;;;;;;;;16.79;100.00;96416.38;1031928;28;19955;-70
2022/05/20 02:00:14;;;;;;;;;;;;;;;16.78;100.00;96422.00;1035438;28;19945;-69
2022/05/20 02:00:45;;;;;;;;;;;;;;;16.76;100.00;96419.59;1041380;28;20011;-70
2022/05/20 02:01:16;;;;;;;;;;;;;;;16.79;100.00;96418.25;1035498;28;19917;-70
2022/05/20 02:01:48;;;;;;;;;;;;;;;16.77;100.00;96415.09;1023574;29;19922;-70
2022/05/20 02:02:24;;;;;;;;;;;;;;;16.77;100.00;96417.75;1019520;29;19918;-70
2022/05/20 02:03:09;;;;;;;;;;;;;;;16.75;100.00;96414.59;1022256;28;20587;-69
2022/05/20 02:03:41;;;;;;;;;;;;;;;16.79;100.00;96413.75;1033378;28;19913;-70
2022/05/20 02:04:13;;;;;;;;;;;;;;;16.76;100.00;96413.53;1030372;28;19913;-70
2022/05/20 02:04:48;;;;;;;;;;;;;;;16.76;100.00;96416.16;1031463;28;19914;-70
2022/05/20 02:05:26;;;;;;;;;;;;;;;16.76;100.00;96413.53;1028524;28;19947;-70
2022/05/20 02:06:09;;;;;;;;;;;;;;;16.71;100.00;96411.72;1031461;28;19914;-70
2022/05/20 02:06:41;;;;;;;;;;;;;;;16.69;100.00;96414.63;1031268;28;19921;-69
2022/05/20 02:07:13;;;;;;;;;;;;;;;16.68;100.00;96407.75;1031554;28;19925;-70
2022/05/20 02:07:45;;;;;;;;;;;;;;;16.65;100.00;96405.66;1040187;28;19996;-71
2022/05/20 02:08:35;;;;;;;;;;;;;;;16.61;100.00;96412.63;1035312;28;19909;-71
2022/05/20 02:09:07;;;;;;;;;;;;;;;16.60;100.00;96416.34;1031744;28;19910;-70
2022/05/20 02:09:44;;;;;;;;;;;;;;;16.59;100.00;96412.09;1027833;28;19906;-70
2022/05/20 02:10:18;;;;;;;;;;;;;;;16.57;100.00;96416.91;1035285;28;20367;-70
2022/05/20 02:10:48;;;;;;;;;;;;;;;16.59;100.00;96424.56;1034886;28;19910;-71
2022/05/20 02:11:25;;;;;;;;;;;;;;;16.60;100.00;96420.84;1039787;28;19936;-70
2022/05/20 02:11:55;;;;;;;;;;;;;;;16.57;100.00;96416.91;1039763;28;19956;-70
2022/05/20 02:12:26;;;;;;;;;;;;;;;16.57;100.00;96419.56;1027427;28;19910;-71
2022/05/20 02:12:57;;;;;;;;;;;;;;;16.56;100.00;96420.63;1027639;28;20320;-70
2022/05/20 02:13:27;;;;;;;;;;;;;;;16.55;100.00;96424.34;1027518;28;20617;-72
2022/05/20 02:14:07;;;;;;;;;;;;;;;16.55;100.00;96416.41;1027988;28;20373;-70
2022/05/20 02:14:41;;;;;;;;;;;;;;;16.55;100.00;96420.91;1035462;28;19909;-70
2022/05/20 02:15:13;;;;;;;;;;;;;;;16.53;100.00;96426.47;1033214;28;19998;-70
2022/05/20 02:15:46;;;;;;;;;;;;;;;16.53;100.00;96421.19;1027530;28;19910;-70
2022/05/20 02:16:21;;;;;;;;;;;;;;;16.52;100.00;96422.25;1027489;28;20021;-70
2022/05/20 02:17:12;;;;;;;;;;;;;;;16.52;100.00;96418.81;1027693;28;20797;-71
2022/05/20 02:17:44;;;;;;;;;;;;;;;16.52;100.00;96418.81;1028084;28;20108;-70
2022/05/20 02:18:21;;;;;;;;;;;;;;;16.50;100.00;96422.56;1031766;28;20295;-70
2022/05/20 02:18:52;;;;;;;;;;;;;;;16.49;100.00;96423.59;1039381;28;20347;-70
2022/05/20 02:19:24;;;;;;;;;;;;;;;16.51;100.00;96418.03;1039656;28;19959;-70
2022/05/20 02:19:55;;;;;;;;;;;;;;;16.49;100.00;96420.97;1034681;28;20291;-70
2022/05/20 02:20:27;;;;;;;;;;;;;;;16.48;100.00;96415.97;1031599;28;20404;-70
2022/05/20 02:21:01;;;;;;;;;;;;;;;16.48;100.00;96418.59;1031471;28;19953;-70
2022/05/20 02:21:34;;;;;;;;;;;;;;;16.46;100.00;96415.44;1027601;28;20763;-71
2022/05/20 02:22:07;;;;;;;;;;;;;;;16.44;100.00;96413.09;1023429;29;19955;-70
2022/05/20 02:22:38;;;;;;;;;;;;;;;16.43;100.00;96423.94;1023041;28;20388;-71
2022/05/20 02:23:14;;;;;;;;;;;;;;;16.39;100.00;96417.66;1027934;28;19899;-70
2022/05/20 02:23:46;;;;;;;;;;;;;;;16.35;100.00;96419.28;1028939;28;20340;-69
2022/05/20 02:24:18;;;;;;;;;;;;;;;16.34;100.00;96417.72;1025609;28;19930;-70
2022/05/20 02:24:48;;;;;;;;;;;;;;;16.33;100.00;96418.78;1027360;28;20281;-69
2022/05/20 02:25:20;;;;;;;;;;;;;;;16.32;100.00;96419.84;1027975;28;19921;-69
2022/05/20 02:25:54;;;;;;;;;;;;;;;16.29;100.00;96426.50;1034511;28;19959;-71
2022/05/20 02:26:26;;;;;;;;;;;;;;;16.30;100.00;96421.97;1031543;28;19928;-70
2022/05/20 02:26:58;;;;;;;;;;;;;;;16.25;100.00;96420.97;1028241;28;20001;-70
2022/05/20 02:27:35;;;;;;;;;;;;;;;16.21;100.00;96422.63;1035431;28;19917;-70
2022/05/20 02:28:26;;;;;;;;;;;;;;;16.20;100.00;96423.69;1032920;28;19918;-70
2022/05/20 02:28:57;;;;;;;;;;;;;;;16.17;100.00;96424.25;1038816;28;19928;-69
2022/05/20 02:29:31;;;;;;;;;;;;;;;16.14;100.00;96419.50;1031782;28;19922;-70
2022/05/20 02:30:04;;;;;;;;;;;;;;;16.15;100.00;96420.31;1029886;28;20383;-70
2022/05/20 02:30:35;;;;;;;;;;;;;;;16.14;100.00;96416.88;1030027;28;19929;-68
2022/05/20 02:31:05;;;;;;;;;;;;;;;16.16;100.00;96422.69;1033189;28;20359;-70
2022/05/20 02:31:38;;;;;;;;;;;;;;;16.15;100.00;96425.59;1035451;28;19960;-70
2022/05/20 02:32:12;;;;;;;;;;;;;;;16.13;100.00;96415.28;1033812;28;19992;-68
2022/05/20 02:32:56;;;;;;;;;;;;;;;16.15;100.00;96421.09;1038263;28;21323;-69
2022/05/20 02:33:26;;;;;;;;;;;;;;;16.12;100.00;96421.66;1039331;28;19917;-70
2022/05/20 02:33:57;;;;;;;;;;;;;;;16.13;100.00;96423.25;1027374;28;20120;-70
2022/05/20 02:34:29;;;;;;;;;;;;;;;16.10;100.00;96423.81;1032858;28;19918;-70
2022/05/20 02:34:59;;;;;;;;;;;;;;;16.07;100.00;96421.72;1035262;28;19913;-69
2022/05/20 02:35:29;;;;;;;;;;;;;;;16.06;100.00;96417.47;1025407;28;20025;-70
2022/05/20 02:36:03;;;;;;;;;;;;;;;16.05;100.00;96431.78;1027147;28;20016;-67
2022/05/20 02:36:35;;;;;;;;;;;;;;;16.03;100.00;96420.69;1029797;28;19922;-69
2022/05/20 02:37:18;;;;;;;;;;;;;;;16.01;100.00;96425.47;1027185;28;19918;-69
2022/05/20 02:37:48;;;;;;;;;;;;;;;15.99;100.00;96423.09;1034997;28;19930;-69
2022/05/20 02:38:19;;;;;;;;;;;;;;;15.98;100.00;96426.81;1033087;28;20407;-70
2022/05/20 02:38:52;;;;;;;;;;;;;;;15.97;100.00;96424.47;1031448;28;20008;-67
2022/05/20 02:39:22;;;;;;;;;;;;;;;15.95;100.00;96421.28;1028930;28;19933;-70
2022/05/20 02:39:53;;;;;;;;;;;;;;;15.94;100.00;96427.66;1027685;28;19918;-68
2022/05/20 02:40:23;;;;;;;;;;;;;;;15.95;100.00;96422.06;1034757;28;19921;-69
2022/05/20 02:40:54;;;;;;;;;;;;;;;15.96;100.00;96428.16;1040595;28;20408;-69
2022/05/20 02:41:25;;;;;;;;;;;;;;;15.95;100.00;96430.00;1039430;28;19964;-69
2022/05/20 02:41:55;;;;;;;;;;;;;;;15.92;100.00;96419.19;1039535;28;20039;-69
2022/05/20 02:42:28;;;;;;;;;;;;;;;15.90;100.00;96427.44;1039480;28;19917;-69
2022/05/20 02:42:59;;;;;;;;;;;;;;;15.88;100.00;96436.72;1039787;28;19909;-69
2022/05/20 02:43:29;;;;;;;;;;;;;;;15.86;100.00;96431.72;1040376;28;20406;-70
2022/05/20 02:44:00;;;;;;;;;;;;;;;15.85;100.00;96421.38;1039670;28;19936;-69
2022/05/20 02:44:30;;;;;;;;;;;;;;;15.83;100.00;96426.97;1039423;28;19928;-70
2022/05/20 02:45:00;;;;;;;;;;;;;;;15.83;100.00;96428.81;1035415;28;19917;-70
2022/05/20 02:45:30;;;;;;;;;;;;;;;15.79;100.00;96432.03;1030627;28;19922;-69
2022/05/20 02:46:01;;;;;;;;;;;;;;;15.75;100.00;96427.56;1031276;28;20315;-66
2022/05/20 02:46:31;;;;;;;;;;;;;;;15.73;100.00;96430.50;1027333;28;20857;-69
2022/05/20 02:47:04;;;;;;;;;;;;;;;15.72;100.00;96428.13;1027366;28;19968;-70
2022/05/20 02:47:36;;;;;;;;;;;;;;;15.70;100.00;96430.25;1031273;28;19930;-70
2022/05/20 02:48:06;;;;;;;;;;;;;;;15.71;100.00;96431.84;1036384;28;20394;-69